Time;durP1;ratioP1;P1;durP2;ratioP2;P2;SDS_P1;SDS_P2;PMS_P1;PMS_P2;Temp;Humidity;BMP_temperature;BMP_pressure;BME280_temperature;BME280_humidity;BME280_pressure;Samples;Min_cycle;Max_cycle;Signal;HPM_P1;HPM_P2
2023/08/20 00:01:57;;;;;;;8.80;8.00;;;;;;;27.40;58.97;101282.03;5048653;28;20056;-57
2023/08/20 00:04:26;;;;;;;9.82;8.15;;;;;;;27.40;58.97;101271.16;5047247;28;20052;-57
2023/08/20 00:06:54;;;;;;;9.98;8.68;;;;;;;27.41;58.76;101283.72;5040006;28;20045;-57
2023/08/20 00:09:21;;;;;;;8.55;7.75;;;;;;;27.42;58.76;101279.97;5051110;28;20045;-55
2023/08/20 00:11:49;;;;;;;9.10;8.30;;;;;;;27.42;58.90;101286.25;5036028;28;20049;-55
2023/08/20 00:14:17;;;;;;;8.48;7.60;;;;;;;27.43;58.79;101277.09;5035910;28;20530;-55
2023/08/20 00:16:45;;;;;;;9.82;8.82;;;;;;;27.44;58.71;101281.50;5036577;28;20052;-55
2023/08/20 00:19:13;;;;;;;9.77;8.77;;;;;;;27.43;58.86;101279.81;5051184;28;20050;-56
2023/08/20 00:21:42;;;;;;;9.63;8.75;;;;;;;27.45;58.70;101280.47;5043149;28;20475;-56
2023/08/20 00:24:10;;;;;;;8.85;8.07;;;;;;;27.46;58.67;101282.16;5043300;28;20061;-56
2023/08/20 00:26:38;;;;;;;9.43;8.40;;;;;;;27.46;58.68;101284.88;5051618;28;20056;-56
2023/08/20 00:29:06;;;;;;;9.80;8.50;;;;;;;27.48;58.47;101287.44;5040357;28;20045;-55
2023/08/20 00:31:35;;;;;;;9.45;8.45;;;;;;;27.47;58.29;101277.59;5047123;28;20045;-55
2023/08/20 00:34:03;;;;;;;8.57;7.68;;;;;;;27.48;58.19;101285.56;5046703;28;20068;-56
2023/08/20 00:36:34;;;;;;;8.77;7.90;;;;;;;27.49;58.25;101280.97;5036610;28;20068;-55
2023/08/20 00:39:02;;;;;;;8.98;8.18;;;;;;;27.49;58.57;101284.53;5039185;28;20052;-57
2023/08/20 00:41:29;;;;;;;8.52;7.72;;;;;;;27.51;58.35;101284.38;5044781;28;20060;-57
2023/08/20 00:43:57;;;;;;;8.73;7.93;;;;;;;27.51;58.11;101282.50;5046773;28;20049;-57
2023/08/20 00:46:25;;;;;;;9.80;8.80;;;;;;;27.51;58.08;101282.50;5039482;28;20380;-57
2023/08/20 00:48:53;;;;;;;9.00;8.10;;;;;;;27.52;58.41;101281.47;5047587;28;20057;-57
2023/08/20 00:51:22;;;;;;;9.52;8.65;;;;;;;27.53;58.34;101283.16;5044319;28;20534;-57
2023/08/20 00:53:49;;;;;;;8.48;7.78;;;;;;;27.54;58.35;101271.25;5041215;28;20048;-57
2023/08/20 00:56:17;;;;;;;8.90;8.10;;;;;;;27.54;58.22;101267.69;5049246;28;20530;-57
2023/08/20 00:58:44;;;;;;;8.73;7.97;;;;;;;27.55;58.25;101278.41;5040996;28;20050;-55
2023/08/20 01:01:12;;;;;;;8.82;7.95;;;;;;;27.56;58.20;101271.09;5043359;28;20049;-55
2023/08/20 01:03:39;;;;;;;8.48;7.68;;;;;;;27.57;58.24;101270.91;5048016;28;20053;-55
2023/08/20 01:06:32;;;;;;;10.48;8.77;;;;;;;27.57;58.22;101270.06;5038442;28;20054;-56
2023/08/20 01:09:34;;;;;;;9.05;8.25;;;;;;;27.58;58.20;101275.31;5034757;28;20068;-55
2023/08/20 01:12:03;;;;;;;9.52;8.43;;;;;;;27.58;57.80;101278.03;5033889;28;20064;-56
2023/08/20 01:14:30;;;;;;;9.55;8.65;;;;;;;27.60;58.14;101276.00;5041076;28;20053;-56
2023/08/20 01:16:57;;;;;;;8.85;8.05;;;;;;;27.60;57.68;101276.00;5044550;28;20045;-55
2023/08/20 01:19:26;;;;;;;8.38;7.57;;;;;;;27.60;57.93;101270.56;5047444;28;20057;-56
2023/08/20 01:22:08;;;;;;;9.05;8.25;;;;;;;27.62;57.97;101273.09;5037674;28;20054;-56
2023/08/20 01:25:11;;;;;;;8.95;8.05;;;;;;;27.63;57.70;101279.38;5046661;28;20407;-57
2023/08/20 01:28:01;;;;;;;9.32;8.43;;;;;;;27.63;57.83;101272.09;5049815;28;20045;-57
2023/08/20 01:30:30;;;;;;;9.52;8.38;;;;;;;27.64;57.87;101270.22;5034500;28;20041;-57
2023/08/20 01:32:58;;;;;;;7.55;6.85;;;;;;;27.64;57.86;101273.78;5046132;28;20045;-57
2023/08/20 01:35:26;;;;;;;8.75;7.80;;;;;;;27.65;57.51;101274.63;5037991;28;20388;-57
2023/08/20 01:38:02;;;;;;;8.38;7.47;;;;;;;27.66;57.70;101276.31;5047933;28;20068;-56
2023/08/20 01:40:30;;;;;;;8.52;7.82;;;;;;;27.66;57.72;101276.31;5033941;28;20049;-56
2023/08/20 01:42:59;;;;;;;8.60;7.80;;;;;;;27.67;57.55;101270.72;5034889;28;20045;-56
2023/08/20 01:45:26;;;;;;;10.55;7.88;;;;;;;27.68;57.45;101268.84;5036296;28;20045;-56
2023/08/20 01:47:54;;;;;;;8.65;7.85;;;;;;;27.68;57.37;101277.00;5046065;28;20406;-56
2023/08/20 01:50:21;;;;;;;8.50;7.63;;;;;;;27.69;57.60;101275.97;5043200;28;20037;-56
2023/08/20 01:52:49;;;;;;;9.70;8.70;;;;;;;27.69;57.24;101276.81;5038425;28;20053;-56
2023/08/20 01:55:16;;;;;;;9.40;8.50;;;;;;;27.70;57.72;101277.66;5048377;28;20052;-56
2023/08/20 01:57:44;;;;;;;8.13;7.35;;;;;;;27.71;57.39;101280.22;5040203;28;20052;-54
2023/08/20 02:00:12;;;;;;;8.52;7.72;;;;;;;27.72;57.54;101283.78;5043137;28;20053;-54
2023/08/20 02:02:42;;;;;;;8.93;8.07;;;;;;;27.73;57.42;101286.34;5054430;28;20049;-54
2023/08/20 02:05:10;;;;;;;8.52;7.25;;;;;;;27.74;57.17;101287.19;5037584;28;20419;-55
2023/08/20 02:07:38;;;;;;;7.82;7.13;;;;;;;27.74;57.25;101285.31;5046641;28;20407;-54
2023/08/20 02:10:06;;;;;;;8.75;7.97;;;;;;;27.74;57.60;101284.47;5034337;28;20042;-55
2023/08/20 02:12:34;;;;;;;7.90;7.15;;;;;;;27.75;57.22;101292.47;5034118;28;20046;-55
2023/08/20 02:15:03;;;;;;;8.45;7.65;;;;;;;27.76;57.14;101296.88;5034848;28;20064;-55
2023/08/20 02:17:30;;;;;;;8.18;7.47;;;;;;;27.76;57.47;101293.31;5046853;28;20049;-56
2023/08/20 02:19:58;;;;;;;8.63;7.72;;;;;;;27.77;57.43;101284.97;5041987;28;20508;-55
2023/08/20 02:22:25;;;;;;;8.35;7.55;;;;;;;27.78;56.99;101293.97;5037785;28;20049;-55
2023/08/20 02:24:53;;;;;;;8.93;8.05;;;;;;;27.78;57.04;101297.53;5048128;28;20061;-55
2023/08/20 02:27:21;;;;;;;8.57;7.82;;;;;;;27.78;57.19;101296.69;5039999;28;20517;-56
2023/08/20 02:29:48;;;;;;;8.45;7.72;;;;;;;27.79;57.04;101299.25;5041767;28;20404;-57
2023/08/20 02:32:16;;;;;;;8.25;7.43;;;;;;;27.80;57.38;101305.56;5047575;28;20045;-56
2023/08/20 02:34:43;;;;;;;8.65;7.00;;;;;;;27.81;57.22;101301.78;5037450;28;20057;-56
2023/08/20 02:37:11;;;;;;;8.70;7.85;;;;;;;27.81;57.39;101304.53;5046323;28;20056;-56
2023/08/20 02:39:38;;;;;;;8.45;7.75;;;;;;;27.82;57.48;101301.59;5043271;28;20041;-55
2023/08/20 02:42:08;;;;;;;8.68;7.85;;;;;;;27.82;57.15;101306.19;5037949;28;20058;-55
2023/08/20 02:44:35;;;;;;;8.15;7.45;;;;;;;27.82;57.54;101303.47;5049718;28;20060;-55
2023/08/20 02:47:03;;;;;;;7.70;7.00;;;;;;;27.85;57.26;101305.84;5045075;28;20046;-55
2023/08/20 02:49:30;;;;;;;8.60;7.90;;;;;;;27.84;57.21;101307.72;5032657;28;20050;-54
2023/08/20 02:51:57;;;;;;;8.25;7.35;;;;;;;27.84;57.47;101296.00;5033850;28;20053;-55
2023/08/20 02:54:25;;;;;;;7.97;7.22;;;;;;;27.84;57.16;101298.72;5032308;28;20060;-55
2023/08/20 02:56:53;;;;;;;8.43;7.70;;;;;;;27.85;57.32;101300.41;5033639;28;20074;-55
2023/08/20 02:59:20;;;;;;;8.65;7.85;;;;;;;27.85;57.62;101303.97;5032192;28;20056;-55
2023/08/20 03:01:48;;;;;;;9.75;8.80;;;;;;;27.83;57.66;101307.91;5032463;28;20049;-54
2023/08/20 03:04:15;;;;;;;9.50;8.65;;;;;;;27.82;57.68;101308.94;5036456;28;20060;-55
2023/08/20 03:06:43;;;;;;;11.43;10.43;;;;;;;27.79;58.18;101304.72;5046082;28;20049;-62
2023/08/20 03:09:11;;;;;;;11.10;10.10;;;;;;;27.76;58.13;101299.59;5033643;28;20053;-61
2023/08/20 03:11:38;;;;;;;11.75;10.65;;;;;;;27.75;58.05;101303.38;5031764;28;20060;-62
2023/08/20 03:14:06;;;;;;;11.85;10.75;;;;;;;27.73;58.31;101299.06;5036254;28;20049;-61
2023/08/20 03:16:33;;;;;;;10.60;9.50;;;;;;;27.73;58.16;101299.06;5038041;28;20051;-61
2023/08/20 03:19:01;;;;;;;10.40;9.40;;;;;;;27.72;57.85;101309.13;5042311;28;20053;-61
2023/08/20 03:21:29;;;;;;;11.45;10.35;;;;;;;27.73;57.91;101299.06;5047761;28;20052;-61
2023/08/20 03:23:56;;;;;;;11.70;10.50;;;;;;;27.72;57.94;101305.56;5036858;28;20052;-61
2023/08/20 03:26:23;;;;;;;11.30;10.27;;;;;;;27.71;58.35;101295.66;5046440;28;20491;-61
2023/08/20 03:28:51;;;;;;;12.60;11.40;;;;;;;27.68;58.48;101298.75;5043912;28;20490;-61
2023/08/20 03:31:18;;;;;;;11.93;10.73;;;;;;;27.65;58.65;101299.94;5038932;28;20062;-61
2023/08/20 03:33:48;;;;;;;11.82;10.77;;;;;;;27.63;58.37;101303.88;5051872;28;20057;-61
2023/08/20 03:36:15;;;;;;;11.95;10.77;;;;;;;27.61;58.52;101304.91;5036481;28;20064;-61
2023/08/20 03:38:43;;;;;;;12.55;11.27;;;;;;;27.62;58.56;101303.03;5036322;28;20048;-59
2023/08/20 03:41:10;;;;;;;11.38;10.38;;;;;;;27.63;58.65;101301.13;5034860;28;20045;-59
2023/08/20 03:43:38;;;;;;;12.40;10.15;;;;;;;27.64;58.63;101305.59;5035018;28;20057;-59
2023/08/20 03:46:05;;;;;;;10.85;9.82;;;;;;;27.63;58.63;101299.28;5037953;28;20050;-59
2023/08/20 03:48:33;;;;;;;11.68;10.52;;;;;;;27.63;58.73;101298.41;5035989;28;20050;-59
2023/08/20 03:51:00;;;;;;;12.00;10.90;;;;;;;27.60;58.81;101300.47;5046093;28;20487;-58
2023/08/20 03:53:28;;;;;;;11.43;10.30;;;;;;;27.61;58.58;101296.72;5035879;28;20395;-59
2023/08/20 03:55:55;;;;;;;12.05;10.93;;;;;;;27.60;58.54;101300.47;5036157;28;20499;-59
2023/08/20 03:58:22;;;;;;;12.02;10.93;;;;;;;27.60;58.77;101305.09;5033982;28;20058;-59
2023/08/20 04:00:50;;;;;;;12.60;11.00;;;;;;;27.58;58.78;101310.69;5046266;28;20050;-58
2023/08/20 04:03:19;;;;;;;11.85;10.75;;;;;;;27.59;58.26;101309.69;5035958;28;20069;-59
2023/08/20 04:05:46;;;;;;;12.15;10.95;;;;;;;27.60;58.15;101310.53;5042950;28;20049;-59
2023/08/20 04:08:14;;;;;;;11.90;10.82;;;;;;;27.61;58.20;101309.50;5044913;28;20056;-59
2023/08/20 04:10:44;;;;;;;11.15;10.07;;;;;;;27.61;58.25;101317.66;5049727;28;20048;-59
2023/08/20 04:13:13;;;;;;;11.98;10.85;;;;;;;27.63;58.25;101310.19;5038522;28;20049;-59
2023/08/20 04:15:41;;;;;;;11.30;10.10;;;;;;;27.61;58.62;101310.34;5046904;28;20054;-59
2023/08/20 04:18:08;;;;;;;12.40;11.18;;;;;;;27.62;58.28;101311.19;5045630;28;20487;-59
2023/08/20 04:20:37;;;;;;;12.25;11.02;;;;;;;27.64;58.12;101313.75;5038158;28;20056;-59
2023/08/20 04:23:04;;;;;;;11.30;10.20;;;;;;;27.64;58.19;101314.59;5049719;28;20057;-59
2023/08/20 04:25:32;;;;;;;11.07;10.07;;;;;;;27.66;58.37;101314.41;5042828;28;20041;-59
2023/08/20 04:28:00;;;;;;;11.98;10.63;;;;;;;27.65;58.03;101319.00;5043599;28;20049;-59
2023/08/20 04:30:27;;;;;;;10.55;9.50;;;;;;;27.66;58.15;101311.69;5049060;28;20171;-58
2023/08/20 04:32:55;;;;;;;11.77;10.63;;;;;;;27.67;58.02;101318.81;5038400;28;20060;-59
2023/08/20 04:35:22;;;;;;;10.57;9.57;;;;;;;27.67;58.29;101319.69;5046163;28;20419;-59
2023/08/20 04:37:51;;;;;;;11.65;10.45;;;;;;;27.67;58.29;101321.53;5046428;28;20045;-61
2023/08/20 04:40:18;;;;;;;12.52;11.43;;;;;;;27.66;58.36;101326.13;5038078;28;20053;-61
2023/08/20 04:42:46;;;;;;;11.27;10.18;;;;;;;27.66;57.82;101322.56;5047848;28;20061;-61
2023/08/20 04:45:14;;;;;;;11.18;10.05;;;;;;;27.66;57.93;101320.69;5034404;28;20049;-61
2023/08/20 04:47:41;;;;;;;11.52;10.35;;;;;;;27.66;58.06;101328.00;5035664;28;20046;-59
2023/08/20 04:50:09;;;;;;;11.75;10.65;;;;;;;27.65;58.24;101331.75;5034355;28;20399;-59
2023/08/20 04:52:37;;;;;;;11.13;10.02;;;;;;;27.65;57.95;101329.03;5034212;28;20504;-59
2023/08/20 04:55:09;;;;;;;12.05;10.60;;;;;;;27.64;58.19;101330.91;5033768;28;20065;-59
2023/08/20 04:57:36;;;;;;;11.60;10.50;;;;;;;27.66;58.18;101337.00;5033890;28;20049;-59
2023/08/20 05:00:05;;;;;;;10.98;9.95;;;;;;;27.65;57.82;101332.59;5034006;28;20488;-59
2023/08/20 05:02:41;;;;;;;12.20;11.00;;;;;;;27.66;58.02;101336.16;5034103;28;20064;-59
2023/08/20 05:05:12;;;;;;;11.60;10.50;;;;;;;27.66;58.02;101336.16;5033936;28;20057;-59
2023/08/20 05:07:41;;;;;;;10.60;9.65;;;;;;;27.66;58.17;101341.59;5033432;28;20057;-61
2023/08/20 05:10:08;;;;;;;11.27;10.15;;;;;;;27.67;57.74;101346.00;5033948;28;20502;-61
2023/08/20 05:12:36;;;;;;;11.80;10.63;;;;;;;27.67;57.86;101343.28;5034794;28;20060;-61
2023/08/20 05:15:04;;;;;;;11.40;10.35;;;;;;;27.66;58.05;101337.00;5034419;28;20058;-61
2023/08/20 05:17:32;;;;;;;11.35;10.35;;;;;;;27.67;57.96;101341.44;5033038;28;20076;-62
2023/08/20 05:20:00;;;;;;;11.70;10.63;;;;;;;27.68;57.70;101350.44;5033398;28;20048;-62
2023/08/20 05:22:27;;;;;;;10.88;9.88;;;;;;;27.69;57.78;101349.41;5034140;28;20049;-62
2023/08/20 05:24:55;;;;;;;11.55;10.35;;;;;;;27.68;57.82;101350.44;5032975;28;20057;-62
2023/08/20 05:27:22;;;;;;;12.05;11.02;;;;;;;27.67;57.46;101355.03;5034465;28;20041;-61
2023/08/20 05:29:51;;;;;;;12.38;11.07;;;;;;;27.64;57.60;101354.53;5032832;28;20065;-61
2023/08/20 05:32:20;;;;;;;11.60;10.40;;;;;;;27.61;57.17;101353.00;5034125;28;20061;-62
2023/08/20 05:34:47;;;;;;;10.23;9.18;;;;;;;27.60;56.96;101354.88;5033895;28;20074;-62
2023/08/20 05:37:17;;;;;;;11.23;10.15;;;;;;;27.61;57.02;101355.72;5032446;28;20041;-62
2023/08/20 05:39:45;;;;;;;9.90;8.98;;;;;;;27.61;57.08;101358.44;5034402;28;20061;-59
2023/08/20 05:42:13;;;;;;;11.18;9.63;;;;;;;27.63;56.67;101359.13;5033460;28;20049;-59
2023/08/20 05:44:46;;;;;;;10.35;9.35;;;;;;;27.64;56.49;101359.97;5034389;28;20498;-59
2023/08/20 05:47:18;;;;;;;10.73;9.67;;;;;;;27.63;56.65;101369.16;5032467;28;20068;-61
2023/08/20 05:49:45;;;;;;;9.68;8.77;;;;;;;27.63;56.13;101371.84;5033280;28;20076;-62
2023/08/20 05:52:12;;;;;;;12.23;9.38;;;;;;;27.64;56.27;101365.41;5032518;28;20058;-61
2023/08/20 05:54:41;;;;;;;9.50;8.27;;;;;;;27.64;55.90;101371.72;5032157;28;20049;-62
2023/08/20 05:57:09;;;;;;;9.48;8.57;;;;;;;27.65;56.05;101373.41;5033896;28;20056;-59
2023/08/20 05:59:37;;;;;;;9.10;8.18;;;;;;;27.65;55.64;101375.28;5051171;28;20053;-61
2023/08/20 06:02:04;;;;;;;9.23;8.32;;;;;;;27.66;55.92;101376.97;5042953;28;20508;-61
2023/08/20 06:04:32;;;;;;;9.40;8.50;;;;;;;27.66;55.64;101379.69;5046764;28;20045;-61
2023/08/20 06:06:59;;;;;;;8.80;7.90;;;;;;;27.65;55.82;101384.28;5037718;28;20049;-61
2023/08/20 06:09:26;;;;;;;8.60;7.70;;;;;;;27.66;55.55;101383.25;5048008;28;20041;-59
2023/08/20 06:11:54;;;;;;;8.95;8.05;;;;;;;27.68;55.85;101385.81;5042517;28;20044;-59
2023/08/20 06:14:21;;;;;;;8.65;7.88;;;;;;;27.69;55.77;101387.50;5040408;28;20049;-59
2023/08/20 06:16:48;;;;;;;8.68;7.78;;;;;;;27.69;55.60;101385.63;5033825;28;20037;-58
2023/08/20 06:19:16;;;;;;;8.13;7.32;;;;;;;27.70;55.54;101387.31;5034375;28;20041;-59
2023/08/20 06:21:43;;;;;;;10.57;8.40;;;;;;;27.71;55.77;101394.47;5034088;28;20480;-59
2023/08/20 06:24:11;;;;;;;9.02;8.13;;;;;;;27.73;55.47;101395.16;5033915;28;20045;-59
2023/08/20 06:26:38;;;;;;;9.00;8.10;;;;;;;27.74;55.72;101396.03;5033793;28;20048;-59
2023/08/20 06:29:06;;;;;;;9.57;8.07;;;;;;;27.74;55.75;101394.13;5034250;28;20045;-61
2023/08/20 06:31:33;;;;;;;8.73;7.88;;;;;;;27.76;55.72;101391.25;5033815;28;20052;-61
2023/08/20 06:34:01;;;;;;;9.70;8.65;;;;;;;27.76;55.44;101394.84;5033860;28;20045;-62
2023/08/20 06:36:28;;;;;;;9.02;8.07;;;;;;;27.77;55.60;101393.81;5033321;28;20049;-61
2023/08/20 06:38:55;;;;;;;8.98;8.05;;;;;;;27.79;55.73;101397.22;5034357;28;20049;-59
2023/08/20 06:41:23;;;;;;;9.52;8.63;;;;;;;27.79;55.79;101391.78;5033692;28;20044;-59
2023/08/20 06:43:50;;;;;;;11.75;9.07;;;;;;;27.79;55.54;101394.50;5033961;28;20060;-59
2023/08/20 06:46:18;;;;;;;9.57;8.63;;;;;;;27.79;56.02;101402.66;5033675;28;20045;-59
2023/08/20 06:48:45;;;;;;;9.15;8.25;;;;;;;27.80;55.63;101395.34;5033962;28;20101;-61
2023/08/20 06:51:18;;;;;;;9.18;8.32;;;;;;;27.80;55.92;101398.06;5033696;28;20049;-61
2023/08/20 06:53:46;;;;;;;8.43;7.65;;;;;;;27.81;55.96;101399.75;5033856;28;20053;-61
2023/08/20 06:56:13;;;;;;;8.82;7.95;;;;;;;27.81;55.64;101397.88;5034585;28;20058;-61
2023/08/20 06:58:42;;;;;;;8.38;7.57;;;;;;;27.81;56.09;101397.88;5034524;28;20053;-61
2023/08/20 07:01:09;;;;;;;9.30;8.25;;;;;;;27.78;55.82;101395.50;5033736;28;20105;-62
2023/08/20 07:03:39;;;;;;;8.88;8.00;;;;;;;27.81;55.86;101394.31;5033899;28;20049;-62
2023/08/20 07:06:07;;;;;;;8.80;7.90;;;;;;;27.83;55.91;101398.56;5034156;28;20510;-61
2023/08/20 07:08:34;;;;;;;8.60;7.70;;;;;;;27.84;55.80;101399.41;5043184;28;20045;-61
2023/08/20 07:11:02;;;;;;;8.80;7.88;;;;;;;27.86;55.72;101400.06;5046306;28;20049;-61
2023/08/20 07:13:30;;;;;;;9.32;7.88;;;;;;;27.89;56.09;101399.72;5051490;28;20469;-61
2023/08/20 07:15:57;;;;;;;8.52;7.72;;;;;;;27.90;55.94;101393.25;5040841;28;20049;-61
2023/08/20 07:18:24;;;;;;;7.82;7.03;;;;;;;27.93;56.24;101397.50;5050189;28;20057;-56
2023/08/20 07:20:52;;;;;;;9.30;8.32;;;;;;;27.96;55.89;101397.16;5046653;28;20399;-57
2023/08/20 07:23:20;;;;;;;7.63;6.82;;;;;;;27.97;56.00;101396.97;5042359;28;20053;-57
2023/08/20 07:25:48;;;;;;;8.77;7.97;;;;;;;27.99;55.60;101402.22;5052304;28;20049;-57
2023/08/20 07:28:20;;;;;;;8.43;7.15;;;;;;;28.00;55.72;101404.78;5050933;28;20049;-60
2023/08/20 07:30:48;;;;;;;8.52;7.63;;;;;;;28.00;55.77;101409.41;5038331;28;20060;-60
2023/08/20 07:33:15;;;;;;;9.00;7.72;;;;;;;28.01;56.27;101409.19;5040991;28;20499;-59
2023/08/20 07:35:42;;;;;;;10.27;9.32;;;;;;;27.95;56.13;101412.63;5047489;28;20046;-59
2023/08/20 07:38:10;;;;;;;10.65;8.63;;;;;;;27.94;56.08;101413.66;5048277;28;20053;-59
2023/08/20 07:40:37;;;;;;;8.32;7.60;;;;;;;27.94;56.09;101421.81;5039407;28;20045;-59
2023/08/20 07:43:04;;;;;;;9.55;8.65;;;;;;;27.91;55.85;101411.25;5038519;28;20464;-60
2023/08/20 07:45:32;;;;;;;9.68;8.82;;;;;;;27.90;56.10;101415.03;5052245;28;20052;-59
2023/08/20 07:47:59;;;;;;;8.88;8.05;;;;;;;27.90;56.16;101420.47;5036108;28;20503;-59
2023/08/20 07:50:27;;;;;;;10.25;9.20;;;;;;;27.88;56.23;101419.81;5036111;28;20060;-59
2023/08/20 07:52:54;;;;;;;9.93;9.02;;;;;;;27.90;55.71;101419.63;5036463;28;20042;-59
2023/08/20 07:55:21;;;;;;;9.43;8.52;;;;;;;27.90;56.22;101420.47;5035975;28;20050;-59
2023/08/20 07:57:49;;;;;;;9.52;8.63;;;;;;;27.90;56.22;101423.19;5050323;28;20045;-56
2023/08/20 08:00:17;;;;;;;9.00;8.10;;;;;;;27.92;56.24;101423.03;5035945;28;20049;-56
2023/08/20 08:02:44;;;;;;;9.57;8.63;;;;;;;27.92;56.29;101418.44;5036079;28;20053;-56
2023/08/20 08:05:14;;;;;;;9.38;8.48;;;;;;;27.93;56.23;101424.72;5036358;28;20049;-58
2023/08/20 08:07:41;;;;;;;11.13;10.02;;;;;;;27.92;56.36;101423.88;5035731;28;20053;-58
2023/08/20 08:10:09;;;;;;;8.70;7.88;;;;;;;27.94;56.08;101432.69;5035642;28;20048;-58
2023/08/20 08:12:36;;;;;;;9.27;8.35;;;;;;;27.96;56.34;101425.22;5035501;28;20045;-58
2023/08/20 08:15:04;;;;;;;9.60;8.60;;;;;;;27.96;55.99;101427.94;5036177;28;20049;-58
2023/08/20 08:17:31;;;;;;;9.50;8.63;;;;;;;27.99;56.07;101422.13;5036379;28;20054;-57
2023/08/20 08:19:59;;;;;;;9.15;8.35;;;;;;;28.00;56.07;101426.56;5035726;28;20045;-56
2023/08/20 08:22:26;;;;;;;9.07;8.27;;;;;;;28.02;56.11;101429.94;5036215;28;20384;-56
2023/08/20 08:24:54;;;;;;;9.48;8.57;;;;;;;28.03;56.38;101431.63;5035826;28;20037;-57
2023/08/20 08:27:21;;;;;;;9.60;8.70;;;;;;;28.04;56.24;101422.47;5035575;28;20411;-58
2023/08/20 08:29:48;;;;;;;9.35;8.43;;;;;;;28.07;56.19;101426.69;5035653;28;20500;-58
2023/08/20 08:32:16;;;;;;;9.07;8.20;;;;;;;28.09;56.70;101425.50;5035516;28;20052;-58
2023/08/20 08:34:43;;;;;;;9.15;8.23;;;;;;;28.10;56.49;101432.63;5035604;28;20052;-58
2023/08/20 08:37:10;;;;;;;9.98;8.30;;;;;;;28.12;56.52;101426.19;5035010;28;20064;-57
2023/08/20 08:39:38;;;;;;;9.82;8.82;;;;;;;28.15;56.69;101425.81;5035647;28;20045;-58
2023/08/20 08:42:07;;;;;;;9.43;7.93;;;;;;;28.14;56.42;101418.69;5034039;28;20041;-58
2023/08/20 08:44:36;;;;;;;8.95;8.05;;;;;;;28.16;56.75;101419.38;5037217;28;20045;-58
2023/08/20 08:47:05;;;;;;;9.95;8.95;;;;;;;28.16;56.30;101422.09;5048312;28;20045;-58
2023/08/20 08:49:33;;;;;;;9.75;8.85;;;;;;;28.16;56.76;101422.94;5045133;28;20049;-57
2023/08/20 08:52:03;;;;;;;9.30;8.40;;;;;;;28.18;56.62;101422.75;5040082;28;20038;-57
2023/08/20 08:54:33;;;;;;;9.27;8.48;;;;;;;28.19;56.20;101422.56;5050360;28;20049;-56
2023/08/20 08:57:00;;;;;;;8.77;7.88;;;;;;;28.20;56.26;101426.16;5040538;28;20411;-56
2023/08/20 08:59:28;;;;;;;8.88;8.07;;;;;;;28.23;56.36;101420.34;5043083;28;20045;-56
2023/08/20 09:01:56;;;;;;;9.00;8.10;;;;;;;28.23;56.40;101423.06;5049279;28;20107;-57
2023/08/20 09:04:24;;;;;;;9.77;8.82;;;;;;;28.23;56.50;101414.91;5037972;28;20048;-57
2023/08/20 09:06:55;;;;;;;9.05;8.25;;;;;;;28.26;57.04;101425.44;5046699;28;20052;-57
2023/08/20 09:09:22;;;;;;;10.17;8.53;;;;;;;28.26;56.91;101415.41;5045837;28;20479;-58
2023/08/20 09:11:50;;;;;;;9.30;8.40;;;;;;;28.28;56.54;101417.97;5038379;28;20411;-58
2023/08/20 09:14:27;;;;;;;8.75;7.95;;;;;;;28.26;56.51;101418.13;5049944;28;20046;-59
2023/08/20 09:17:01;;;;;;;8.95;8.05;;;;;;;28.28;56.71;101415.25;5047011;28;20057;-58
2023/08/20 09:19:34;;;;;;;9.55;8.38;;;;;;;28.30;56.74;101407.72;5039993;28;20052;-58
2023/08/20 09:22:02;;;;;;;9.82;8.88;;;;;;;28.29;57.07;101404.16;5048482;28;20052;-59
2023/08/20 09:24:42;;;;;;;8.52;7.82;;;;;;;28.32;56.51;101409.25;5037575;28;20388;-58
2023/08/20 09:27:09;;;;;;;9.35;8.55;;;;;;;28.35;56.32;101403.44;5046112;28;20041;-59
2023/08/20 09:29:45;;;;;;;10.63;8.93;;;;;;;28.40;55.75;101394.78;5037749;28;20041;-61
2023/08/20 09:32:23;;;;;;;9.38;8.48;;;;;;;28.44;55.53;101398.84;5048534;28;20045;-62
2023/08/20 09:34:53;;;;;;;10.25;9.25;;;;;;;28.47;55.65;101395.75;5042762;28;20060;-61
2023/08/20 09:37:22;;;;;;;9.60;8.77;;;;;;;28.48;55.79;101392.00;5049218;28;20056;-60
2023/08/20 09:39:52;;;;;;;10.70;9.63;;;;;;;28.49;56.06;101388.25;5038757;28;20403;-59
2023/08/20 09:42:19;;;;;;;8.77;7.97;;;;;;;28.51;55.99;101385.34;5033594;28;20045;-55
2023/08/20 09:44:48;;;;;;;9.85;8.95;;;;;;;28.53;56.27;101394.19;5041493;28;20048;-55
2023/08/20 09:47:20;;;;;;;9.98;8.98;;;;;;;28.58;56.09;101389.91;5037992;28;20046;-57
2023/08/20 09:49:49;;;;;;;10.38;9.38;;;;;;;28.65;56.04;101389.19;5045603;28;20052;-57
2023/08/20 09:52:40;;;;;;;9.73;8.73;;;;;;;28.68;55.71;101392.38;5036292;28;20034;-56
2023/08/20 09:55:20;;;;;;;9.65;8.75;;;;;;;28.70;55.40;101387.59;5032982;28;20092;-57
2023/08/20 09:57:48;;;;;;;9.93;9.00;;;;;;;28.69;55.80;101379.63;5039699;28;20404;-54
2023/08/20 10:00:15;;;;;;;8.68;7.88;;;;;;;28.68;55.77;101376.03;5043783;28;20045;-56
2023/08/20 10:02:45;;;;;;;10.90;9.90;;;;;;;28.69;56.06;101382.34;5034756;28;20053;-56
2023/08/20 10:05:14;;;;;;;9.80;8.90;;;;;;;28.68;56.00;101381.47;5034224;28;20052;-56
2023/08/20 10:07:43;;;;;;;9.50;8.70;;;;;;;28.67;56.21;101374.34;5033531;28;20045;-56
2023/08/20 10:10:13;;;;;;;10.15;9.05;;;;;;;28.69;55.71;101372.28;5037075;28;20053;-57
2023/08/20 10:12:43;;;;;;;10.48;9.57;;;;;;;28.70;55.62;101378.59;5047553;28;20041;-57
2023/08/20 10:15:13;;;;;;;10.65;9.75;;;;;;;28.71;55.36;101380.28;5034910;28;20056;-57
2023/08/20 10:17:42;;;;;;;10.88;9.88;;;;;;;28.70;55.49;101370.41;5034014;28;20484;-57
2023/08/20 10:20:12;;;;;;;10.10;9.15;;;;;;;28.71;55.78;101370.22;5034000;28;20048;-57
2023/08/20 10:22:42;;;;;;;11.07;10.07;;;;;;;28.73;55.36;101368.19;5033570;28;20042;-57
2023/08/20 10:25:12;;;;;;;11.38;10.38;;;;;;;28.76;55.50;101362.38;5034194;28;20049;-56
2023/08/20 10:27:45;;;;;;;11.13;9.60;;;;;;;28.77;55.23;101357.78;5034089;28;20476;-57
2023/08/20 10:30:25;;;;;;;9.48;8.63;;;;;;;28.78;55.53;101359.47;5033655;28;20052;-58
2023/08/20 10:32:56;;;;;;;10.23;9.25;;;;;;;28.78;55.52;101357.56;5033823;28;20057;-58
2023/08/20 10:35:26;;;;;;;10.95;9.77;;;;;;;28.77;55.71;101357.78;5033187;28;20069;-58
2023/08/20 10:38:06;;;;;;;10.38;9.38;;;;;;;28.77;57.73;101352.31;5033984;28;20516;-53
2023/08/20 10:40:53;;;;;;;10.23;9.25;;;;;;;28.76;59.89;101345.16;5033696;28;20057;-55
2023/08/20 10:43:27;;;;;;;10.88;9.88;;;;;;;28.74;60.08;101356.25;5037646;28;20057;-55
2023/08/20 10:46:07;;;;;;;10.30;9.40;;;;;;;28.70;60.05;101352.19;5038097;28;20041;-57
2023/08/20 10:48:38;;;;;;;10.20;9.38;;;;;;;28.69;60.48;101355.09;5040802;28;20513;-59
2023/08/20 10:51:13;;;;;;;10.55;9.45;;;;;;;28.66;61.51;101350.84;5050230;28;20053;-58
2023/08/20 10:53:43;;;;;;;10.40;9.50;;;;;;;28.64;61.51;101358.34;5048658;28;20041;-59
2023/08/20 10:56:16;;;;;;;11.02;10.10;;;;;;;28.61;62.18;101356.00;5040954;28;20049;-58
2023/08/20 10:58:44;;;;;;;;;;;;;;;28.58;62.00;101354.47;5052342;28;20053;-58
2023/08/20 11:01:22;;;;;;;10.65;9.65;;;;;;;28.57;62.79;101350.06;5045301;28;19996;-57
2023/08/20 11:03:50;;;;;;;11.82;9.38;;;;;;;28.57;62.47;101346.50;5042499;28;20052;-59
2023/08/20 11:06:18;;;;;;;11.23;9.85;;;;;;;28.56;62.93;101351.09;5052304;28;20054;-58
2023/08/20 11:08:46;;;;;;;9.82;8.93;;;;;;;28.54;62.78;101349.56;5042222;28;20049;-56
2023/08/20 11:11:13;;;;;;;10.93;9.95;;;;;;;28.56;63.72;101350.22;5053489;28;20045;-55
2023/08/20 11:13:42;;;;;;;11.32;10.23;;;;;;;28.53;63.94;101346.00;5041651;28;20053;-55
2023/08/20 11:16:10;;;;;;;10.45;9.40;;;;;;;28.52;63.54;101344.31;5036852;28;20049;-54
2023/08/20 11:18:38;;;;;;;9.98;9.07;;;;;;;28.51;63.61;101339.88;5037292;28;20480;-55
2023/08/20 11:21:07;;;;;;;10.63;9.73;;;;;;;28.50;63.73;101329.19;5036431;28;20049;-55
2023/08/20 11:23:35;;;;;;;11.93;10.93;;;;;;;28.48;63.41;101332.09;5036193;28;20403;-55
2023/08/20 11:26:02;;;;;;;10.60;9.50;;;;;;;28.49;63.68;101322.03;5036909;28;20052;-57
2023/08/20 11:28:30;;;;;;;9.80;8.93;;;;;;;28.47;63.44;101316.75;5036793;28;20053;-57
2023/08/20 11:30:57;;;;;;;9.90;9.00;;;;;;;28.47;63.95;101324.09;5036170;28;20049;-57